createdAt,value
2019-05-05T00:01:16.043Z,4.40
2019-05-05T00:04:04.483Z,4.40
2019-05-05T00:06:34.255Z,4.40
2019-05-05T00:09:05.352Z,4.40
2019-05-05T00:11:50.636Z,4.40
2019-05-05T00:14:24.592Z,4.40
2019-05-05T00:16:57.388Z,4.40
2019-05-05T00:19:32.661Z,4.40
2019-05-05T00:21:56.100Z,4.40
2019-05-05T00:24:24.558Z,4.40
2019-05-05T00:26:55.162Z,4.40
2019-05-05T00:29:25.217Z,4.40
2019-05-05T00:31:54.676Z,4.30
2019-05-05T00:34:24.504Z,4.30
2019-05-05T00:36:55.061Z,4.30
2019-05-05T00:39:25.450Z,4.30
2019-05-05T00:41:55.487Z,4.30
2019-05-05T00:44:24.702Z,4.20
2019-05-05T00:46:55.151Z,4.20
2019-05-05T00:49:25.873Z,4.20
2019-05-05T00:51:54.841Z,4.20
2019-05-05T00:54:24.433Z,4.10
2019-05-05T00:56:54.469Z,4.10
2019-05-05T00:59:25.282Z,4.00
2019-05-05T01:02:15.046Z,4.00
2019-05-05T01:04:45.288Z,4.00
2019-05-05T01:07:14.355Z,4.00
2019-05-05T01:09:45.091Z,4.00
2019-05-05T01:12:14.984Z,4.00
2019-05-05T01:14:44.770Z,3.90
2019-05-05T01:17:14.713Z,3.90
2019-05-05T01:19:45.380Z,3.80
2019-05-05T01:22:14.387Z,3.80
2019-05-05T01:24:45.653Z,3.80
2019-05-05T01:27:14.743Z,3.80
2019-05-05T01:29:45.231Z,3.70
2019-05-05T01:32:15.572Z,3.70
2019-05-05T01:34:47.232Z,3.60
2019-05-05T01:37:23.145Z,3.60
2019-05-05T01:39:54.226Z,3.60
2019-05-05T01:42:24.723Z,3.60
2019-05-05T01:44:55.173Z,3.50
2019-05-05T01:47:25.425Z,3.50
2019-05-05T01:49:54.533Z,3.50
2019-05-05T01:52:25.297Z,3.50
2019-05-05T01:54:54.773Z,3.50
2019-05-05T01:57:25.208Z,3.50
2019-05-05T01:59:55.252Z,3.50
2019-05-05T02:02:25.128Z,3.50
2019-05-05T02:04:55.387Z,3.40
2019-05-05T02:07:25.046Z,3.40
2019-05-05T02:09:55.347Z,3.40
2019-05-05T02:12:24.642Z,3.40
2019-05-05T02:14:55.118Z,3.40
2019-05-05T02:17:24.702Z,3.40
2019-05-05T02:19:54.925Z,3.40
2019-05-05T02:22:25.254Z,3.50
2019-05-05T02:24:55.142Z,3.50
2019-05-05T02:27:25.398Z,3.60
2019-05-05T02:29:55.779Z,3.60
2019-05-05T02:32:28.648Z,3.60
2019-05-05T02:34:58.816Z,3.70
2019-05-05T02:37:28.596Z,3.70
2019-05-05T02:40:02.610Z,3.80
2019-05-05T02:42:28.032Z,3.80
2019-05-05T02:45:00.188Z,3.70
2019-05-05T02:47:54.919Z,3.80
2019-05-05T02:50:25.215Z,3.70
2019-05-05T02:52:55.220Z,3.70
2019-05-05T02:55:24.408Z,3.70
2019-05-05T02:57:54.421Z,3.70
2019-05-05T03:00:24.841Z,3.60
2019-05-05T03:02:57.028Z,3.60
2019-05-05T03:05:25.824Z,3.60
2019-05-05T03:07:55.748Z,3.50
2019-05-05T03:10:27.092Z,3.50
2019-05-05T03:12:57.180Z,3.40
2019-05-05T03:15:45.293Z,3.40
2019-05-05T03:18:13.996Z,3.30
2019-05-05T03:20:43.601Z,3.20
2019-05-05T03:23:13.615Z,3.20
2019-05-05T03:25:43.986Z,3.10
2019-05-05T03:28:13.770Z,3.10
2019-05-05T03:30:45.489Z,3.00
2019-05-05T03:33:15.925Z,3.00
2019-05-05T03:35:45.257Z,3.00
2019-05-05T03:38:14.274Z,3.00
2019-05-05T03:40:44.687Z,2.90
2019-05-05T03:43:28.020Z,2.90
2019-05-05T03:45:58.456Z,2.80
2019-05-05T03:48:27.656Z,2.80
2019-05-05T03:50:56.721Z,2.80
2019-05-05T03:53:25.669Z,2.80
2019-05-05T03:55:55.369Z,2.80
2019-05-05T03:58:24.214Z,2.80
2019-05-05T04:00:55.860Z,2.80
2019-05-05T04:03:24.392Z,2.80
2019-05-05T04:06:00.944Z,2.80
2019-05-05T04:08:29.740Z,2.80
2019-05-05T04:10:58.364Z,2.80
2019-05-05T04:13:28.133Z,2.80
2019-05-05T04:16:13.463Z,2.80
2019-05-05T04:18:43.603Z,2.80
2019-05-05T04:21:14.378Z,2.80
2019-05-05T04:23:44.170Z,2.70
2019-05-05T04:26:14.286Z,2.70
2019-05-05T04:28:43.622Z,2.70
2019-05-05T04:31:13.542Z,2.70
2019-05-05T04:33:44.348Z,2.80
2019-05-05T04:36:14.298Z,2.70
2019-05-05T04:38:43.945Z,2.70
2019-05-05T04:41:14.034Z,2.70
2019-05-05T04:43:44.207Z,2.70
2019-05-05T04:46:14.108Z,2.70
2019-05-05T04:48:44.416Z,2.70
2019-05-05T04:51:20.125Z,2.80
2019-05-05T04:54:05.301Z,2.80
2019-05-05T04:56:34.379Z,2.90
2019-05-05T04:59:04.191Z,2.90
2019-05-05T05:01:33.550Z,2.90
2019-05-05T05:04:06.648Z,3.00
2019-05-05T05:06:36.812Z,3.00
2019-05-05T05:09:06.484Z,3.00
2019-05-05T05:11:35.013Z,3.10
2019-05-05T05:14:03.928Z,3.10
2019-05-05T05:16:32.608Z,3.20
2019-05-05T05:19:01.234Z,3.20
2019-05-05T05:21:29.755Z,3.20
2019-05-05T05:23:58.236Z,3.30
2019-05-05T05:26:26.763Z,3.30
2019-05-05T05:28:55.212Z,3.30
2019-05-05T05:31:24.498Z,3.30
2019-05-05T05:33:54.901Z,3.30
2019-05-05T05:36:24.810Z,3.30
2019-05-05T05:38:55.067Z,3.30
2019-05-05T05:41:43.446Z,3.40
2019-05-05T05:44:17.112Z,3.40
2019-05-05T05:46:54.585Z,3.50
2019-05-05T05:49:27.298Z,3.50
2019-05-05T05:51:56.085Z,3.50
2019-05-05T05:54:24.681Z,3.50
2019-05-05T05:56:53.817Z,3.50
2019-05-05T05:59:24.528Z,3.50
2019-05-05T06:02:06.090Z,3.60
2019-05-05T06:04:23.538Z,3.60
2019-05-05T06:06:54.253Z,3.60
2019-05-05T06:09:23.759Z,3.70
2019-05-05T06:11:54.082Z,3.70
2019-05-05T06:14:24.639Z,3.80
2019-05-05T06:16:53.991Z,3.80
2019-05-05T06:19:24.496Z,3.80
2019-05-05T06:21:54.284Z,3.90
2019-05-05T06:24:24.035Z,3.90
2019-05-05T06:26:54.748Z,3.90
2019-05-05T06:29:23.914Z,3.90
2019-05-05T06:31:53.823Z,3.90
2019-05-05T06:34:24.297Z,3.90
2019-05-05T06:36:53.786Z,4.00
2019-05-05T06:39:24.127Z,4.00
2019-05-05T06:42:10.639Z,4.10
2019-05-05T06:44:40.808Z,4.20
2019-05-05T06:47:11.180Z,4.20
2019-05-05T06:49:39.704Z,4.30
2019-05-05T06:52:08.319Z,4.40
2019-05-05T06:54:36.772Z,4.50
2019-05-05T06:57:05.320Z,4.60
2019-05-05T06:59:34.977Z,4.70
2019-05-05T07:02:04.409Z,4.80
2019-05-05T07:04:34.006Z,4.90
2019-05-05T07:07:04.918Z,5.10
2019-05-05T07:09:33.603Z,5.30
2019-05-05T07:12:04.323Z,5.60
2019-05-05T07:14:34.011Z,5.90
2019-05-05T07:17:04.916Z,6.20
2019-05-05T07:19:34.460Z,6.40
2019-05-05T07:22:04.087Z,6.60
2019-05-05T07:24:34.488Z,6.80
2019-05-05T07:27:04.768Z,7.00
2019-05-05T07:29:34.295Z,7.20
2019-05-05T07:32:04.002Z,7.30
2019-05-05T07:34:54.657Z,7.40
2019-05-05T07:37:23.816Z,7.40
2019-05-05T07:39:54.101Z,7.50
2019-05-05T07:42:24.330Z,7.50
2019-05-05T07:44:54.724Z,7.50
2019-05-05T07:47:23.882Z,7.40
2019-05-05T07:49:53.545Z,7.40
2019-05-05T07:52:23.734Z,7.50
2019-05-05T07:54:54.970Z,7.60
2019-05-05T07:57:23.821Z,7.60
2019-05-05T07:59:54.021Z,7.70
2019-05-05T08:02:23.779Z,7.70
2019-05-05T08:04:54.404Z,7.90
2019-05-05T08:07:23.998Z,8.00
2019-05-05T08:09:53.729Z,8.10
2019-05-05T08:12:24.661Z,8.20
2019-05-05T08:14:53.710Z,8.30
2019-05-05T08:17:26.796Z,8.40
2019-05-05T08:19:56.965Z,8.60
2019-05-05T08:22:25.524Z,8.60
2019-05-05T08:25:04.623Z,8.70
2019-05-05T08:27:37.615Z,8.80
2019-05-05T08:30:09.121Z,8.80
2019-05-05T08:32:39.456Z,8.70
2019-05-05T08:35:08.448Z,8.80
2019-05-05T08:37:36.928Z,9.00
2019-05-05T08:40:07.392Z,9.00
2019-05-05T08:42:35.880Z,9.00
2019-05-05T08:45:05.252Z,9.00
2019-05-05T08:47:34.602Z,9.00
2019-05-05T08:50:04.988Z,8.80
2019-05-05T08:52:34.262Z,8.70
2019-05-05T08:55:04.697Z,8.60
2019-05-05T08:57:34.087Z,8.70
2019-05-05T09:00:04.841Z,8.70
2019-05-05T09:02:35.980Z,8.60
2019-05-05T09:05:04.905Z,8.50
2019-05-05T09:07:33.828Z,8.40
2019-05-05T09:10:03.913Z,8.40
2019-05-05T09:12:33.904Z,8.40
2019-05-05T09:15:04.442Z,8.40
2019-05-05T09:17:33.646Z,8.40
2019-05-05T09:20:04.411Z,8.40
2019-05-05T09:22:34.686Z,8.40
2019-05-05T09:25:05.065Z,8.40
2019-05-05T09:27:35.223Z,8.50
2019-05-05T09:30:05.670Z,8.60
2019-05-05T09:32:34.580Z,8.70
2019-05-05T09:35:04.771Z,8.70
2019-05-05T09:37:34.060Z,8.70
2019-05-05T09:40:04.502Z,8.80
2019-05-05T09:42:34.156Z,8.80
2019-05-05T09:45:04.786Z,8.80
2019-05-05T09:47:34.389Z,8.80
2019-05-05T09:50:04.297Z,8.80
2019-05-05T09:52:33.798Z,8.80
2019-05-05T09:55:03.815Z,8.90
2019-05-05T09:57:34.352Z,8.90
2019-05-05T10:00:07.608Z,8.90
2019-05-05T10:02:36.137Z,8.90
2019-05-05T10:05:07.032Z,8.90
2019-05-05T10:07:35.553Z,8.90
2019-05-05T10:10:05.357Z,8.90
2019-05-05T10:12:33.889Z,8.90
2019-05-05T10:15:07.184Z,9.00
2019-05-05T10:17:33.657Z,9.00
2019-05-05T10:20:03.972Z,9.00
2019-05-05T10:22:34.294Z,9.10
2019-05-05T10:25:14.205Z,9.10
2019-05-05T10:27:47.450Z,9.30
2019-05-05T10:30:14.262Z,9.40
2019-05-05T10:32:43.873Z,9.50
2019-05-05T10:35:14.329Z,9.70
2019-05-05T10:37:43.903Z,9.90
2019-05-05T10:40:15.745Z,10.10
2019-05-05T10:42:50.399Z,10.40
2019-05-05T10:45:21.660Z,10.80
2019-05-05T10:47:51.067Z,11.00
2019-05-05T10:50:19.964Z,11.40
2019-05-05T10:52:49.136Z,11.80
2019-05-05T10:55:18.060Z,12.10
2019-05-05T10:57:46.664Z,12.70
2019-05-05T11:00:17.236Z,12.80
2019-05-05T11:02:46.141Z,12.90
2019-05-05T11:05:15.068Z,12.80
2019-05-05T11:07:43.672Z,13.80
2019-05-05T11:10:14.119Z,14.90
2019-05-05T11:12:44.367Z,16.40
2019-05-05T11:15:14.386Z,17.30
2019-05-05T11:17:43.917Z,17.70
2019-05-05T11:20:14.438Z,18.00
2019-05-05T11:22:43.862Z,18.20
2019-05-05T11:25:13.855Z,18.00
2019-05-05T11:27:43.986Z,17.50
2019-05-05T11:30:15.113Z,16.40
2019-05-05T11:33:03.875Z,16.10
2019-05-05T11:35:44.394Z,15.70
2019-05-05T11:38:14.187Z,15.20
2019-05-05T11:40:43.906Z,14.80
2019-05-05T11:43:14.183Z,14.60
2019-05-05T11:45:43.926Z,14.70
2019-05-05T11:48:14.641Z,15.20
2019-05-05T11:50:43.660Z,16.20
2019-05-05T11:53:14.577Z,16.30
2019-05-05T11:55:44.226Z,16.20
2019-05-05T11:58:14.285Z,15.80
2019-05-05T12:00:43.868Z,15.80
2019-05-05T12:03:14.340Z,15.80
2019-05-05T12:05:44.309Z,15.50
2019-05-05T12:08:14.652Z,15.20
2019-05-05T12:10:44.800Z,15.00
2019-05-05T12:13:14.787Z,17.80
2019-05-05T12:15:45.116Z,20.90
2019-05-05T12:18:14.344Z,23.40
2019-05-05T12:20:44.068Z,25.50
2019-05-05T12:23:12.752Z,25.70
2019-05-05T12:25:56.926Z,23.30
2019-05-05T12:28:24.239Z,21.50
2019-05-05T12:31:11.120Z,20.10
2019-05-05T12:33:39.652Z,18.80
2019-05-05T12:36:08.701Z,18.10
2019-05-05T12:38:37.221Z,17.40
2019-05-05T12:41:05.777Z,17.00
2019-05-05T12:43:34.448Z,17.60
2019-05-05T12:46:07.416Z,18.60
2019-05-05T12:48:40.301Z,20.60
2019-05-05T12:51:08.934Z,21.90
2019-05-05T12:53:37.540Z,21.40
2019-05-05T12:56:06.173Z,21.00
2019-05-05T12:58:35.142Z,20.10
2019-05-05T13:01:11.468Z,19.40
2019-05-05T13:03:40.089Z,18.80
2019-05-05T13:06:08.912Z,18.00
2019-05-05T13:08:37.465Z,17.10
2019-05-05T13:11:05.998Z,16.10
2019-05-05T13:13:34.696Z,15.20
2019-05-05T13:16:04.230Z,14.70
2019-05-05T13:18:34.051Z,14.40
2019-05-05T13:21:16.336Z,14.10
2019-05-05T13:23:46.461Z,14.00
2019-05-05T13:26:16.632Z,13.90
2019-05-05T13:28:45.330Z,14.10
2019-05-05T13:31:14.034Z,14.20
2019-05-05T13:33:44.227Z,14.20
2019-05-05T13:36:13.842Z,14.10
2019-05-05T13:38:43.778Z,14.10
2019-05-05T13:41:12.556Z,14.00
2019-05-05T13:43:41.040Z,13.90
2019-05-05T13:46:17.228Z,13.80
2019-05-05T13:48:45.776Z,13.70
2019-05-05T13:51:15.946Z,13.70
2019-05-05T13:53:44.947Z,13.80
2019-05-05T13:56:15.392Z,13.80
2019-05-05T13:58:43.881Z,13.80
2019-05-05T14:01:14.283Z,13.70
2019-05-05T14:03:44.696Z,13.70
2019-05-05T14:06:13.861Z,13.70
2019-05-05T14:08:44.616Z,13.70
2019-05-05T14:11:14.244Z,13.70
2019-05-05T14:13:45.486Z,14.10
2019-05-05T14:16:14.323Z,14.50
2019-05-05T14:18:43.076Z,14.70
2019-05-05T14:21:13.912Z,14.70
2019-05-05T14:23:55.564Z,14.60
2019-05-05T14:26:28.263Z,14.60
2019-05-05T14:28:54.973Z,14.30
2019-05-05T14:31:40.640Z,14.20
2019-05-05T14:34:13.999Z,14.10
2019-05-05T14:37:00.420Z,13.90
2019-05-05T14:39:29.212Z,13.70
2019-05-05T14:41:58.016Z,13.60
2019-05-05T14:44:26.897Z,13.60
2019-05-05T14:46:55.505Z,13.60
2019-05-05T14:49:24.598Z,13.70
2019-05-05T14:51:53.914Z,14.10
2019-05-05T14:54:22.531Z,14.50
2019-05-05T14:56:51.005Z,14.70
2019-05-05T14:59:19.557Z,14.80
2019-05-05T15:01:48.011Z,14.80
2019-05-05T15:04:18.141Z,14.70
2019-05-05T15:06:48.308Z,14.60
2019-05-05T15:09:30.423Z,14.30
2019-05-05T15:12:17.240Z,14.00
2019-05-05T15:14:45.737Z,13.80
2019-05-05T15:17:14.533Z,13.60
2019-05-05T15:19:43.590Z,13.50
2019-05-05T15:22:14.845Z,13.50
2019-05-05T15:24:44.124Z,13.50
2019-05-05T15:27:13.170Z,13.60
2019-05-05T15:29:43.666Z,13.70
2019-05-05T15:32:11.911Z,13.60
2019-05-05T15:34:40.364Z,13.50
2019-05-05T15:37:08.923Z,13.50
2019-05-05T15:39:37.524Z,13.40
2019-05-05T15:42:06.516Z,13.30
2019-05-05T15:44:35.068Z,13.30
2019-05-05T15:47:03.696Z,13.20
2019-05-05T15:49:32.569Z,13.10
2019-05-05T15:52:01.128Z,13.00
2019-05-05T15:54:29.665Z,12.80
2019-05-05T15:57:05.309Z,12.70
2019-05-05T15:59:28.412Z,12.60
2019-05-05T16:01:57.336Z,12.60
2019-05-05T16:04:25.865Z,12.50
2019-05-05T16:06:54.506Z,12.40
2019-05-05T16:09:23.393Z,12.40
2019-05-05T16:11:54.392Z,12.40
2019-05-05T16:14:23.847Z,12.40
2019-05-05T16:16:55.994Z,12.40
2019-05-05T16:19:27.914Z,12.50
2019-05-05T16:21:57.744Z,12.50
2019-05-05T16:24:30.644Z,12.40
2019-05-05T16:26:59.213Z,12.40
2019-05-05T16:29:28.036Z,12.40
2019-05-05T16:31:56.521Z,12.30
2019-05-05T16:34:24.988Z,12.30
2019-05-05T16:36:54.481Z,12.20
2019-05-05T16:39:25.702Z,12.20
2019-05-05T16:41:53.954Z,12.10
2019-05-05T16:44:23.440Z,12.10
2019-05-05T16:46:53.838Z,12.10
2019-05-05T16:49:22.643Z,12.10
2019-05-05T16:52:00.768Z,12.20
2019-05-05T16:54:30.608Z,12.30
2019-05-05T16:56:59.168Z,12.40
2019-05-05T16:59:27.712Z,12.50
2019-05-05T17:01:56.360Z,12.50
2019-05-05T17:04:24.901Z,12.50
2019-05-05T17:06:54.616Z,12.40
2019-05-05T17:09:24.142Z,12.40
2019-05-05T17:12:11.133Z,12.40
2019-05-05T17:15:00.233Z,12.40
2019-05-05T17:17:34.088Z,12.40
2019-05-05T17:20:05.045Z,12.40
2019-05-05T17:22:35.241Z,12.40
2019-05-05T17:25:04.888Z,12.40
2019-05-05T17:27:47.039Z,12.40
2019-05-05T17:30:04.576Z,12.40
2019-05-05T17:32:34.453Z,12.20
2019-05-05T17:35:03.803Z,12.10
2019-05-05T17:37:33.555Z,12.00
2019-05-05T17:40:04.254Z,12.00
2019-05-05T17:42:44.043Z,11.90
2019-05-05T17:45:14.848Z,11.80
2019-05-05T17:47:45.112Z,11.80
2019-05-05T17:50:15.553Z,11.70
2019-05-05T17:52:48.660Z,11.70
2019-05-05T17:55:30.386Z,11.70
2019-05-05T17:58:02.583Z,11.60
2019-05-05T18:00:34.103Z,11.60
2019-05-05T18:03:04.193Z,11.50
2019-05-05T18:05:50.548Z,11.50
2019-05-05T18:08:35.628Z,11.30
2019-05-05T18:11:06.528Z,11.20
2019-05-05T18:13:36.706Z,11.10
2019-05-05T18:16:05.647Z,10.90
2019-05-05T18:18:34.201Z,10.80
2019-05-05T18:21:02.738Z,10.70
2019-05-05T18:23:31.612Z,10.60
2019-05-05T18:26:00.396Z,10.50
2019-05-05T18:28:29.014Z,10.30
2019-05-05T18:30:57.609Z,10.20
2019-05-05T18:33:26.172Z,10.10
2019-05-05T18:35:54.715Z,10.00
2019-05-05T18:38:23.661Z,9.90
2019-05-05T18:40:53.914Z,9.90
2019-05-05T18:43:26.575Z,9.80
2019-05-05T18:46:04.574Z,9.70
2019-05-05T18:48:34.487Z,9.60
2019-05-05T18:51:03.923Z,9.60
2019-05-05T18:53:34.130Z,9.50
2019-05-05T18:56:03.783Z,9.40
2019-05-05T18:58:34.167Z,9.40
2019-05-05T19:01:10.234Z,9.30
2019-05-05T19:03:46.240Z,9.20
2019-05-05T19:06:19.331Z,9.20
2019-05-05T19:09:02.542Z,9.10
2019-05-05T19:11:34.042Z,9.00
2019-05-05T19:14:02.584Z,9.00
2019-05-05T19:16:31.213Z,8.90
2019-05-05T19:18:59.745Z,8.90
2019-05-05T19:21:36.105Z,8.80
2019-05-05T19:24:05.088Z,8.80
2019-05-05T19:26:33.812Z,8.80
2019-05-05T19:29:05.007Z,8.70
2019-05-05T19:31:36.280Z,8.70
2019-05-05T19:34:04.052Z,8.60
2019-05-05T19:36:34.279Z,8.50
2019-05-05T19:39:04.098Z,8.50
2019-05-05T19:41:34.816Z,8.40
2019-05-05T19:44:04.678Z,8.40
2019-05-05T19:46:51.340Z,8.30
2019-05-05T19:49:20.412Z,8.30
2019-05-05T19:51:49.809Z,8.20
2019-05-05T19:54:18.483Z,8.20
2019-05-05T19:56:48.013Z,8.20
2019-05-05T19:59:16.610Z,8.10
2019-05-05T20:01:45.253Z,8.10
2019-05-05T20:04:14.691Z,8.10
2019-05-05T20:06:44.166Z,8.10
2019-05-05T20:09:14.114Z,8.10
2019-05-05T20:11:43.786Z,8.00
2019-05-05T20:14:14.872Z,8.00
2019-05-05T20:16:59.244Z,8.00
2019-05-05T20:19:28.176Z,7.90
2019-05-05T20:21:56.708Z,7.90
2019-05-05T20:24:25.265Z,7.90
2019-05-05T20:26:55.332Z,7.90
2019-05-05T20:29:24.124Z,7.80
2019-05-05T20:31:56.432Z,7.80
2019-05-05T20:34:30.524Z,7.80
2019-05-05T20:37:14.131Z,7.80
2019-05-05T20:39:43.942Z,7.70
2019-05-05T20:42:14.725Z,7.70
2019-05-05T20:44:43.764Z,7.70
2019-05-05T20:47:12.566Z,7.60
2019-05-05T20:49:41.412Z,7.70
2019-05-05T20:52:09.936Z,7.60
2019-05-05T20:54:38.436Z,7.60
2019-05-05T20:57:06.975Z,7.60
2019-05-05T20:59:35.458Z,7.70
2019-05-05T21:02:04.495Z,7.60
2019-05-05T21:04:34.490Z,7.70
2019-05-05T21:07:04.429Z,7.70
2019-05-05T21:09:34.525Z,7.70
2019-05-05T21:12:04.822Z,7.70
2019-05-05T21:14:37.286Z,7.70
2019-05-05T21:17:04.247Z,7.70
2019-05-05T21:19:34.520Z,7.70
2019-05-05T21:22:21.238Z,7.60
2019-05-05T21:24:50.405Z,7.60
2019-05-05T21:27:18.936Z,7.60
2019-05-05T21:29:47.462Z,7.60
2019-05-05T21:32:16.025Z,7.60
2019-05-05T21:34:44.582Z,7.60
2019-05-05T21:37:14.119Z,7.60
2019-05-05T21:39:45.286Z,7.50
2019-05-05T21:42:14.037Z,7.40
2019-05-05T21:44:44.239Z,7.30
2019-05-05T21:47:14.219Z,7.30
2019-05-05T21:49:42.987Z,7.20
2019-05-05T21:52:14.353Z,7.20
2019-05-05T21:54:44.636Z,7.20
2019-05-05T21:57:14.820Z,7.20
2019-05-05T21:59:55.225Z,7.10
2019-05-05T22:02:15.286Z,7.10
2019-05-05T22:04:43.883Z,7.00
2019-05-05T22:07:14.480Z,7.00
2019-05-05T22:09:42.844Z,6.90
2019-05-05T22:12:13.427Z,6.90
2019-05-05T22:14:43.871Z,6.80
2019-05-05T22:17:14.497Z,6.80
2019-05-05T22:19:59.314Z,6.80
2019-05-05T22:22:29.492Z,6.70
2019-05-05T22:24:57.948Z,6.70
2019-05-05T22:27:26.403Z,6.70
2019-05-05T22:30:09.119Z,6.70
2019-05-05T22:32:25.124Z,6.70
2019-05-05T22:34:53.680Z,6.60
2019-05-05T22:37:23.616Z,6.60
2019-05-05T22:39:54.247Z,6.60
2019-05-05T22:42:24.508Z,6.60
2019-05-05T22:44:52.636Z,6.50
2019-05-05T22:47:23.503Z,6.50
2019-05-05T22:49:53.958Z,6.40
2019-05-05T22:52:25.253Z,6.40
2019-05-05T22:54:52.408Z,6.40
2019-05-05T22:57:21.208Z,6.40
2019-05-05T22:59:49.948Z,6.30
2019-05-05T23:02:20.197Z,6.40
2019-05-05T23:04:50.396Z,6.30
2019-05-05T23:07:20.565Z,6.30
2019-05-05T23:09:49.112Z,6.30
2019-05-05T23:12:17.939Z,6.20
2019-05-05T23:14:46.825Z,6.20
2019-05-05T23:17:26.458Z,6.20
2019-05-05T23:20:13.511Z,6.10
2019-05-05T23:22:46.348Z,6.10
2019-05-05T23:25:25.304Z,6.10
2019-05-05T23:27:54.746Z,6.10
2019-05-05T23:30:37.854Z,6.00
2019-05-05T23:32:54.956Z,5.90
2019-05-05T23:35:24.028Z,5.80
2019-05-05T23:37:55.068Z,5.80
2019-05-05T23:40:27.412Z,5.80
2019-05-05T23:42:55.980Z,5.80
2019-05-05T23:45:25.029Z,5.80
2019-05-05T23:47:54.460Z,5.80
2019-05-05T23:50:24.104Z,5.70
2019-05-05T23:52:54.574Z,5.70
2019-05-05T23:55:23.915Z,5.70
2019-05-05T23:57:54.628Z,5.70
